Time;durP1;ratioP1;P1;durP2;ratioP2;P2;SDS_P1;SDS_P2;PMS_P1;PMS_P2;Temp;Humidity;BMP_temperature;BMP_pressure;BME280_temperature;BME280_humidity;BME280_pressure;Samples;Min_cycle;Max_cycle;Signal;HPM_P1;HPM_P2
2023/12/07 00:02:00;;;;;;;7.53;2.70;;;;;;;;;;4907051;28;88303;-68
2023/12/07 00:08:01;;;;;;;2.23;2.03;;;;;;;;;;4964853;28;87316;-69
2023/12/07 00:10:30;;;;;;;3.33;1.83;;;;;;;;;;4966825;28;87611;-69
2023/12/07 00:12:58;;;;;;;4.23;2.10;;;;;;;;;;4969057;28;92660;-68
2023/12/07 00:15:28;;;;;;;2.23;2.03;;;;;;;;;;4968077;28;89155;-69
2023/12/07 00:17:56;;;;;;;3.47;2.17;;;;;;;;;;4973511;28;87603;-69
2023/12/07 00:20:25;;;;;;;1.77;1.60;;;;;;;;;;4966386;28;87698;-67
2023/12/07 00:22:53;;;;;;;2.50;1.90;;;;;;;;;;4971866;28;89863;-68
2023/12/07 00:25:21;;;;;;;3.33;1.73;;;;;;;;;;4968901;28;89021;-69
2023/12/07 00:27:51;;;;;;;3.10;1.97;;;;;;;;;;4970676;28;87591;-69
2023/12/07 00:30:20;;;;;;;3.50;1.90;;;;;;;;;;4969739;28;87677;-69
2023/12/07 00:36:49;;;;;;;2.93;1.80;;;;;;;;;;4970782;28;87489;-68
2023/12/07 00:39:18;;;;;;;2.70;1.63;;;;;;;;;;4972057;28;87615;-69
2023/12/07 00:41:47;;;;;;;3.60;1.43;;;;;;;;;;4977068;28;87679;-68
2023/12/07 00:44:17;;;;;;;1.93;1.63;;;;;;;;;;4975217;28;92350;-69
2023/12/07 00:46:45;;;;;;;1.47;1.33;;;;;;;;;;4976646;28;89090;-68
2023/12/07 00:49:13;;;;;;;2.33;1.67;;;;;;;;;;4974609;28;87665;-68
2023/12/07 00:51:43;;;;;;;1.73;1.47;;;;;;;;;;4979504;28;87416;-68
2023/12/07 00:54:17;;;;;;;2.00;1.43;;;;;;;;;;4977712;28;92602;-68
2023/12/07 00:56:55;;;;;;;2.50;1.80;;;;;;;;;;4981808;28;87990;-69
2023/12/07 00:59:23;;;;;;;2.70;1.70;;;;;;;;;;4975813;28;87486;-68
2023/12/07 01:01:51;;;;;;;1.97;1.63;;;;;;;;;;4980717;28;87654;-69
2023/12/07 01:04:20;;;;;;;3.53;1.37;;;;;;;;;;4976958;28;90150;-69
2023/12/07 01:06:54;;;;;;;2.50;1.37;;;;;;;;;;4978855;28;92281;-68
2023/12/07 01:09:27;;;;;;;1.63;1.20;;;;;;;;;;4979218;28;87329;-68
2023/12/07 01:11:57;;;;;;;2.03;1.43;;;;;;;;;;4978244;28;87447;-68
2023/12/07 01:14:27;;;;;;;1.67;1.50;;;;;;;;;;4971291;28;89870;-68
2023/12/07 01:16:56;;;;;;;3.53;1.47;;;;;;;;;;4978752;28;89060;-67
2023/12/07 01:19:25;;;;;;;3.97;2.03;;;;;;;;;;4973784;28;87499;-68
2023/12/07 01:25:05;;;;;;;1.50;1.40;;;;;;;;;;4967405;28;90987;-68
2023/12/07 01:27:36;;;;;;;3.37;1.53;;;;;;;;;;4966166;28;88000;-68
2023/12/07 01:30:06;;;;;;;2.00;1.53;;;;;;;;;;4962667;28;87479;-69
2023/12/07 01:32:35;;;;;;;1.57;1.30;;;;;;;;;;4981075;28;87668;-69
2023/12/07 01:35:04;;;;;;;1.17;1.03;;;;;;;;;;4985830;28;88503;-68
2023/12/07 01:46:45;;;;;;;1.63;1.50;;;;;;;;;;4972918;28;89970;-67
2023/12/07 01:49:13;;;;;;;2.77;1.50;;;;;;;;;;4981977;28;88257;-69
2023/12/07 01:51:42;;;;;;;1.50;1.37;;;;;;;;;;4982183;28;87404;-69
2023/12/07 01:54:10;;;;;;;2.30;1.00;;;;;;;;;;4984749;28;87572;-67
2023/12/07 01:56:39;;;;;;;1.57;1.17;;;;;;;;;;4985336;28;89814;-68
2023/12/07 01:59:08;;;;;;;1.17;1.07;;;;;;;;;;4982250;28;88026;-68
2023/12/07 02:01:36;;;;;;;3.20;1.97;;;;;;;;;;4981577;28;87573;-68
2023/12/07 02:04:06;;;;;;;1.30;1.20;;;;;;;;;;4981180;28;87703;-68
2023/12/07 02:06:36;;;;;;;2.70;2.27;;;;;;;;;;4981994;28;88260;-68
2023/12/07 02:09:05;;;;;;;1.53;1.43;;;;;;;;;;4999396;28;88973;-68
2023/12/07 02:15:46;;;;;;;3.70;2.10;;;23.30;38.70;;;;;;4973463;28;87834;-67
2023/12/07 02:18:16;;;;;;;7.90;2.17;;;23.20;38.70;;;;;;4981778;28;89625;-67
2023/12/07 02:20:48;;;;;;;2.40;2.13;;;23.10;38.70;;;;;;4981108;28;89510;-68
2023/12/07 02:26:20;;;;;;;3.43;2.43;;;23.10;38.80;;;;;;4896880;28;87740;-68
2023/12/07 02:28:50;;;;;;;5.93;2.20;;;23.10;38.80;;;;;;4984593;28;92417;-68
2023/12/07 02:31:18;;;;;;;2.10;1.90;;;23.10;38.80;;;;;;4965007;28;89119;-67
2023/12/07 02:37:25;;;;;;;2.87;1.57;;;23.00;38.80;;;;;;4981352;28;87656;-67
2023/12/07 02:39:54;;;;;;;2.93;1.80;;;22.90;38.80;;;;;;4985555;28;89616;-68
2023/12/07 02:42:22;;;;;;;1.77;1.67;;;22.90;38.80;;;;;;4986885;28;89035;-67
2023/12/07 02:44:53;;;;;;;3.17;2.00;;;22.90;38.80;;;;;;4980441;28;87768;-68
2023/12/07 02:47:21;;;;;;;2.60;1.70;;;22.90;38.90;;;;;;4932466;28;87581;-67
2023/12/07 02:49:49;;;;;;;2.37;1.90;;;22.90;38.90;;;;;;4978471;28;89606;-67
2023/12/07 02:52:17;;;;;;;2.30;1.60;;;22.90;38.90;;;;;;4976370;28;89394;-68
2023/12/07 02:58:36;;;;;;;4.40;1.90;;;22.80;38.90;;;;;;4976737;28;87935;-68
2023/12/07 03:01:32;;;;;;;2.17;1.50;;;22.80;38.90;;;;;;4980357;28;90112;-68
2023/12/07 03:04:00;;;;;;;1.90;1.60;;;22.70;38.90;;;;;;4981723;28;89127;-67
2023/12/07 03:06:29;;;;;;;2.00;1.90;;;22.70;38.80;;;;;;4993304;28;87483;-68
2023/12/07 03:08:58;;;;;;;3.40;1.63;;;22.70;38.90;;;;;;4995968;28;87670;-68
2023/12/07 03:11:26;;;;;;;3.53;1.80;;;22.70;38.90;;;;;;4981012;28;90603;-68
2023/12/07 03:14:45;;;;;;;2.97;1.63;;;22.70;38.90;;;;;;4981524;28;89112;-68
2023/12/07 03:17:17;;;;;;;5.20;1.73;;;22.70;38.90;;;;;;4842897;28;89095;-68
2023/12/07 03:19:45;;;;;;;7.57;1.70;;;22.70;38.90;;;;;;4977669;28;88219;-69
2023/12/07 03:23:13;;;;;;;2.13;1.73;;;22.70;38.90;;;;;;4986371;28;89705;-68
2023/12/07 03:25:41;;;;;;;2.17;1.97;;;22.60;38.90;;;;;;4961474;28;89329;-69
2023/12/07 03:28:20;;;;;;;1.90;1.40;;;22.60;39.00;;;;;;4969014;28;87614;-68
2023/12/07 03:30:51;;;;;;;4.10;1.97;;;22.60;39.00;;;;;;4980674;28;87675;-68
2023/12/07 03:33:20;;;;;;;2.30;1.83;;;22.50;39.00;;;;;;4980869;28;89782;-68
2023/12/07 03:35:49;;;;;;;2.27;2.03;;;22.50;39.00;;;;;;4980685;28;89173;-69
2023/12/07 03:40:59;;;;;;;2.33;2.10;;;22.50;39.00;;;;;;4976421;28;87810;-68
2023/12/07 03:43:27;;;;;;;1.93;1.70;;;22.50;39.00;;;;;;4977629;28;89607;-69
2023/12/07 03:45:57;;;;;;;3.20;1.67;;;22.50;39.00;;;;;;4978575;28;91996;-69
2023/12/07 03:48:38;;;;;;;1.50;1.40;;;22.50;39.10;;;;;;4979781;28;87438;-68
2023/12/07 03:51:07;;;;;;;3.27;2.10;;;22.40;38.90;;;;;;4978264;28;87738;-68
2023/12/07 03:54:31;;;;;;;3.50;1.83;;;22.40;39.00;;;;;;4977763;28;89986;-68
2023/12/07 03:56:59;;;;;;;2.30;1.37;;;22.40;39.10;;;;;;4982922;28;88976;-69
2023/12/07 03:59:27;;;;;;;2.10;1.60;;;22.40;39.00;;;;;;4983276;28;87724;-69
2023/12/07 04:01:55;;;;;;;1.90;1.80;;;22.30;39.00;;;;;;4983265;28;87473;-69
2023/12/07 04:04:24;;;;;;;3.40;2.27;;;22.30;39.00;;;;;;4981493;28;90006;-69
2023/12/07 04:06:52;;;;;;;2.13;1.60;;;22.30;39.10;;;;;;4981284;28;89224;-69
2023/12/07 04:09:21;;;;;;;2.30;2.10;;;22.30;39.00;;;;;;4981120;28;87612;-69
2023/12/07 04:11:51;;;;;;;6.13;2.47;;;22.30;39.10;;;;;;4986576;28;87850;-69
2023/12/07 04:14:20;;;;;;;4.70;2.07;;;22.30;39.10;;;;;;4975902;28;89957;-69
2023/12/07 04:16:48;;;;;;;8.10;1.97;;;22.30;39.10;;;;;;4980932;28;89055;-68
2023/12/07 04:22:45;;;;;;;2.50;2.30;;;22.30;39.10;;;;;;4950228;28;87499;-69
2023/12/07 04:25:49;;;;;;;5.50;2.27;;;22.20;39.10;;;;;;5000818;28;89972;-67
2023/12/07 04:28:17;;;;;;;4.43;2.30;;;22.20;39.10;;;;;;4993400;28;89121;-66
2023/12/07 04:30:45;;;;;;;3.77;2.53;;;22.20;39.10;;;;;;4980751;28;87454;-70
2023/12/07 04:33:13;;;;;;;3.43;2.30;;;22.20;39.20;;;;;;4984177;28;88011;-68
2023/12/07 04:35:41;;;;;;;2.30;1.53;;;22.20;39.10;;;;;;4967036;28;89669;-68
2023/12/07 04:38:11;;;;;;;2.17;1.53;;;22.20;39.20;;;;;;4961478;28;89057;-69
2023/12/07 04:40:39;;;;;;;2.00;1.80;;;22.10;39.00;;;;;;4974253;28;87420;-69
2023/12/07 04:43:07;;;;;;;5.57;2.10;;;22.10;39.00;;;;;;4930987;28;87688;-68
2023/12/07 04:45:35;;;;;;;2.50;1.50;;;22.10;39.10;;;;;;4979748;28;92059;-70
2023/12/07 04:48:04;;;;;;;2.50;1.83;;;22.10;39.10;;;;;;4980545;28;89378;-68
2023/12/07 04:50:32;;;;;;;3.23;2.20;;;22.10;39.10;;;;;;4980222;28;87479;-69
2023/12/07 04:53:00;;;;;;;3.30;2.00;;;22.10;39.10;;;;;;4984194;28;87999;-69
2023/12/07 04:55:30;;;;;;;3.23;1.87;;;22.10;39.10;;;;;;4980743;28;89152;-67
2023/12/07 04:59:02;;;;;;;2.27;1.33;;;22.00;39.00;;;;;;4979744;28;89250;-67
2023/12/07 05:01:58;;;;;;;7.33;2.53;;;22.00;39.10;;;;;;4981612;28;87491;-68
2023/12/07 05:04:26;;;;;;;2.03;1.90;;;22.00;39.10;;;;;;4992425;28;87977;-68
2023/12/07 05:06:54;;;;;;;1.60;1.37;;;22.00;39.10;;;;;;4985025;28;89676;-69
2023/12/07 05:09:23;;;;;;;3.07;2.00;;;21.90;39.00;;;;;;4977862;28;89510;-69
2023/12/07 05:11:53;;;;;;;1.70;1.20;;;21.90;39.10;;;;;;4978164;28;87603;-68
2023/12/07 05:14:21;;;;;;;3.23;1.70;;;21.90;39.10;;;;;;4988473;28;87493;-68
2023/12/07 05:16:52;;;;;;;3.00;2.03;;;21.90;39.10;;;;;;4944985;28;89809;-68
2023/12/07 05:19:21;;;;;;;1.80;1.13;;;21.90;39.10;;;;;;4983271;28;90660;-68
2023/12/07 05:21:49;;;;;;;4.70;2.40;;;21.90;39.20;;;;;;4982965;28;87481;-68
2023/12/07 05:24:31;;;;;;;2.47;2.27;;;21.80;39.10;;;;;;4985710;28;87653;-69
2023/12/07 05:27:03;;;;;;;3.10;2.07;;;21.80;39.20;;;;;;4994549;28;89683;-68
2023/12/07 05:29:31;;;;;;;3.47;1.57;;;21.80;39.10;;;;;;4982903;28;89217;-69
2023/12/07 05:35:42;;;;;;;1.70;1.60;;;21.80;39.20;;;;;;4997821;28;87647;-68
2023/12/07 05:38:10;;;;;;;2.27;2.03;;;21.70;39.10;;;;;;4988846;28;89745;-69
2023/12/07 05:40:38;;;;;;;2.30;1.50;;;21.70;39.20;;;;;;4982938;28;89072;-68
2023/12/07 05:43:07;;;;;;;3.83;1.97;;;21.70;39.20;;;;;;4982555;28;87369;-68
2023/12/07 05:45:36;;;;;;;3.40;1.90;;;21.70;39.30;;;;;;4986173;28;87712;-69
2023/12/07 05:48:55;;;;;;;2.27;1.70;;;21.70;38.80;;;;;;4981672;28;89646;-68
2023/12/07 05:51:24;;;;;;;2.30;1.70;;;21.70;39.40;;;;;;4982728;28;87487;-68
2023/12/07 05:54:09;;;;;;;4.10;2.40;;;21.70;39.30;;;;;;4982237;28;87620;-69
2023/12/07 05:56:37;;;;;;;2.30;2.10;;;21.70;39.40;;;;;;4985555;28;87519;-69
2023/12/07 05:59:46;;;;;;;2.87;1.80;;;21.70;39.50;;;;;;4981917;28;92284;-69
2023/12/07 06:02:14;;;;;;;3.60;1.53;;;21.60;39.50;;;;;;4964179;28;89072;-68
2023/12/07 06:04:42;;;;;;;3.30;1.93;;;21.70;39.60;;;;;;4981909;28;87369;-69
2023/12/07 06:07:12;;;;;;;1.83;1.40;;;21.60;39.50;;;;;;4986694;28;87631;-68
2023/12/07 06:09:41;;;;;;;3.00;1.50;;;21.60;39.60;;;;;;4951780;28;89725;-68
2023/12/07 06:12:09;;;;;;;3.30;1.73;;;21.60;39.60;;;;;;4998359;28;89618;-68
2023/12/07 06:14:39;;;;;;;8.43;2.33;;;21.60;39.60;;;;;;4982068;28;87557;-68
2023/12/07 06:17:21;;;;;;;1.67;1.57;;;21.60;39.60;;;;;;4939021;28;87519;-68
2023/12/07 06:20:04;;;;;;;4.03;2.67;;;21.60;39.60;;;;;;4962025;28;89466;-68
2023/12/07 06:22:45;;;;;;;2.10;1.30;;;21.60;39.70;;;;;;4978940;28;88985;-68
2023/12/07 06:25:19;;;;;;;2.50;1.50;;;21.60;39.70;;;;;;4981819;28;87467;-68
2023/12/07 06:27:50;;;;;;;4.20;2.13;;;21.60;39.70;;;;;;4990890;28;87892;-68
2023/12/07 06:30:21;;;;;;;3.13;1.60;;;21.50;39.70;;;;;;4937189;28;89701;-68
2023/12/07 06:32:50;;;;;;;4.67;1.90;;;21.50;39.80;;;;;;4986962;28;87936;-68
2023/12/07 06:35:31;;;;;;;1.63;1.50;;;21.50;39.80;;;;;;4985136;28;90460;-68
2023/12/07 06:37:59;;;;;;;4.47;2.13;;;21.50;39.90;;;;;;4988429;28;87652;-68
2023/12/07 06:40:40;;;;;;;3.90;2.17;;;;;;;;;;4982802;28;90075;-68
2023/12/07 06:43:09;;;;;;;3.63;2.10;;;;;;;;;;4931558;28;89214;-69
2023/12/07 06:45:41;;;;;;;2.63;2.00;;;;;;;;;;4987886;28;88784;-69
2023/12/07 06:48:16;;;;;;;4.23;3.10;;;;;;;;;;4987837;28;87514;-69
2023/12/07 06:50:44;;;;;;;3.97;2.30;;;;;;;;;;4993276;28;89858;-68
2023/12/07 06:53:12;;;;;;;2.53;2.07;;;;;;;;;;4990802;28;89084;-69
2023/12/07 06:55:41;;;;;;;2.77;2.37;;;;;;;;;;4989822;28;87589;-68
2023/12/07 06:58:13;;;;;;;3.63;2.50;;;;;;;;;;4987197;28;87374;-69
2023/12/07 07:00:41;;;;;;;4.00;3.07;;;;;;;;;;4990357;28;89648;-68
2023/12/07 07:03:09;;;;;;;3.07;2.10;;;;;;;;;;4981646;28;88305;-68
2023/12/07 07:05:40;;;;;;;2.63;2.23;;;;;;;;;;4990488;28;87528;-69
2023/12/07 07:08:08;;;;;;;3.73;2.57;;;;;;;;;;4986449;28;87563;-69
2023/12/07 07:10:39;;;;;;;4.73;2.63;;;;;;;;;;4982693;28;89623;-69
2023/12/07 07:13:14;;;;;;;7.63;2.97;;;;;;;;;;4945049;28;88324;-68
2023/12/07 07:15:43;;;;;;;4.10;2.83;;;;;;;;;;4992235;28;87560;-68
2023/12/07 07:21:35;;;;;;;5.63;2.47;;;;;;;;;;4984679;28;87809;-67
2023/12/07 07:24:03;;;;;;;6.37;3.60;;;;;;;;;;4988713;28;89027;-69
2023/12/07 07:26:34;;;;;;;3.80;2.57;;;;;;;;;;4986133;28;87705;-67
2023/12/07 07:29:03;;;;;;;3.80;2.70;;;;;;;;;;4988198;28;87762;-69
2023/12/07 07:31:32;;;;;;;2.53;2.33;;;;;;;;;;4987051;28;89648;-68
2023/12/07 07:34:08;;;;;;;4.73;2.33;;;;;;;;;;4992739;28;89108;-67
2023/12/07 07:36:43;;;;;;;5.63;3.23;;;;;;;;;;4984359;28;87651;-64
2023/12/07 07:39:13;;;;;;;4.37;2.83;;;;;;;;;;4986561;28;87355;-63
2023/12/07 07:41:49;;;;;;;3.87;2.83;;;;;;;;;;4991022;28;89591;-63
2023/12/07 07:44:42;;;;;;;7.27;3.37;;;;;;;;;;4986982;28;88995;-62
2023/12/07 07:47:33;;;;;;;5.87;2.83;;;;;;;;;;4938698;28;87549;-62
2023/12/07 07:50:05;;;;;;;4.00;2.63;;;;;;;;;;4984263;28;87446;-63
2023/12/07 07:52:49;;;;;;;3.23;2.47;;;;;;;;;;4880748;28;88466;-64
2023/12/07 07:55:17;;;;;;;3.63;2.57;;;;;;;;;;4927691;28;89350;-63
2023/12/07 07:57:46;;;;;;;5.93;3.07;;;;;;;;;;4928109;28;87703;-63
2023/12/07 08:00:15;;;;;;;3.33;2.20;;;;;;;;;;4924423;28;87946;-63
2023/12/07 08:03:22;;;;;;;4.07;2.30;;;;;;;;;;4924644;28;89703;-63
2023/12/07 08:09:41;;;;;;;9.33;3.20;;;;;;;;;;4843746;29;87998;-64
2023/12/07 08:12:18;;;;;;;3.63;2.67;;;;;;;;;;4837515;29;87704;-64
2023/12/07 08:14:48;;;;;;;6.30;2.70;;;;;;;;;;4901581;28;89572;-64
2023/12/07 08:17:16;;;;;;;3.83;2.17;;;;;;;;;;4918843;28;89402;-64
2023/12/07 08:20:02;;;;;;;4.40;2.23;;;;;;;;;;4921504;28;87705;-64
2023/12/07 08:22:45;;;;;;;4.10;2.50;;;;;;;;;;4926542;28;87776;-64
2023/12/07 08:25:32;;;;;;;;;;;;;;;;;;;;;
2023/12/07 08:28:33;;;;;;;3.07;2.13;;;;;;;;;;4928827;28;87591;-65
2023/12/07 08:31:18;;;;;;;3.50;2.10;;;;;;;;;;4975939;28;88313;-64
2023/12/07 08:33:47;;;;;;;3.37;2.40;;;;;;;;;;4985072;28;87414;-64
2023/12/07 08:36:17;;;;;;;3.50;2.37;;;;;;;;;;4979528;28;89692;-62
2023/12/07 08:38:48;;;;;;;3.30;2.00;;;;;;;;;;4978235;28;89917;-64
2023/12/07 08:41:23;;;;;;;4.37;2.80;;;;;;;;;;4984365;28;87755;-64
2023/12/07 08:43:59;;;;;;;3.10;1.87;;;;;;;;;;4964389;28;87754;-64
2023/12/07 08:46:28;;;;;;;4.13;2.13;;;;;;;;;;4980378;28;89616;-65
2023/12/07 08:52:37;;;;;;;3.13;1.93;;;;;;;;;;4979655;28;87270;-64
2023/12/07 08:55:16;;;;;;;4.13;2.13;;;;;;;;;;4980610;28;87461;-64
2023/12/07 08:57:47;;;;;;;4.23;2.37;;;;;;;;;;4982180;28;90979;-64
2023/12/07 09:00:16;;;;;;;4.27;2.27;;;;;;;;;;4984137;28;88930;-64
2023/12/07 09:02:44;;;;;;;6.00;3.00;;;;;;;;;;4983641;28;87532;-64
2023/12/07 09:05:15;;;;;;;3.83;2.23;;;;;;;;;;4984688;28;87815;-65
2023/12/07 09:08:12;;;;;;;3.43;2.13;;;;;;;;;;4973902;28;89727;-65
2023/12/07 09:10:43;;;;;;;3.70;2.37;;;;;;;;;;4982823;28;89050;-64
2023/12/07 09:13:13;;;;;;;2.27;1.67;;;;;;;;;;4981177;28;87508;-64
2023/12/07 09:15:42;;;;;;;2.20;1.77;;;;;;;;;;4982655;28;87709;-64
2023/12/07 09:18:11;;;;;;;3.20;1.90;;;;;;;;;;4980426;28;89572;-63
2023/12/07 09:21:04;;;;;;;3.60;1.67;;;;;;;;;;4975429;28;88573;-64
2023/12/07 09:23:33;;;;;;;3.93;2.70;;;;;;;;;;4981182;28;87799;-64
2023/12/07 09:26:01;;;;;;;4.17;2.07;;;;;;;;;;4980140;28;87855;-62
2023/12/07 09:28:32;;;;;;;3.07;2.07;;;;;;;;;;4982714;28;89648;-65
2023/12/07 09:34:22;;;;;;;3.63;2.00;;;;;;;;;;4988344;28;88159;-63
2023/12/07 09:36:51;;;;;;;5.30;2.43;;;;;;;;;;4984065;28;87508;-63
2023/12/07 09:39:19;;;;;;;2.17;1.60;;;;;;;;;;4979518;28;89537;-64
2023/12/07 09:41:48;;;;;;;2.67;1.80;;;;;;;;;;4991460;28;89053;-63
2023/12/07 09:44:17;;;;;;;3.70;2.20;;;;;;;;;;4984405;28;87648;-62
2023/12/07 09:46:48;;;;;;;3.10;1.63;;;;;;;;;;4982570;28;87652;-62
2023/12/07 09:49:17;;;;;;;8.07;2.27;;;;;;;;;;4985724;28;89591;-62
2023/12/07 09:52:11;;;;;;;5.70;3.23;;;;;;;;;;4982318;28;89011;-62
2023/12/07 09:54:43;;;;;;;9.83;4.37;;;;;;;;;;4980098;28;87700;-63
2023/12/07 09:57:12;;;;;;;11.97;5.03;;;;;;;;;;4989639;28;90252;-62
2023/12/07 10:00:07;;;;;;;8.23;6.70;;;;;;;;;;4989593;28;89621;-63
2023/12/07 10:02:52;;;;;;;8.57;6.57;;;;;;;;;;4918271;28;87709;-63
2023/12/07 10:05:22;;;;;;;7.73;5.70;;;;;;;;;;4991720;28;87903;-63
2023/12/07 10:07:51;;;;;;;7.83;4.47;;;;;;;;;;4992655;28;87631;-62
2023/12/07 10:10:26;;;;;;;7.80;5.43;;;;;;;;;;4979221;28;89706;-62
2023/12/07 10:12:55;;;;;;;7.53;5.13;;;;;;;;;;4980377;28;88972;-62
2023/12/07 10:15:25;;;;;;;7.07;4.53;;;;;;;;;;4989665;28;87496;-63
2023/12/07 10:17:54;;;;;;;5.77;4.03;;;;;;;;;;4990432;28;87686;-63
2023/12/07 10:24:04;;;;;;;5.23;3.73;;;;;;;;;;4962522;28;88074;-63
2023/12/07 10:26:36;;;;;;;6.20;4.67;;;;;;;;;;4987891;28;87447;-63
2023/12/07 10:29:06;;;;;;;4.43;3.70;;;;;;;;;;4980075;28;88078;-63
2023/12/07 10:31:39;;;;;;;4.97;3.57;;;;;;;;;;4992294;28;89737;-63
2023/12/07 10:34:07;;;;;;;8.00;4.47;;;;;;;;;;4992141;28;89052;-63
2023/12/07 10:37:07;;;;;;;6.33;3.97;;;;;;;;;;4980927;28;87527;-63
2023/12/07 10:39:35;;;;;;;5.17;3.73;;;;;;;;;;4981610;28;87608;-63
2023/12/07 10:42:04;;;;;;;7.40;3.53;;;;;;;;;;4981201;28;89968;-63
2023/12/07 10:44:35;;;;;;;4.90;3.43;;;;;;;;;;4981236;28;89053;-63
2023/12/07 10:47:10;;;;;;;7.00;2.73;;;;;;;;;;4981013;28;87392;-63
2023/12/07 10:49:41;;;;;;;5.00;3.83;;;;;;;;;;4981913;28;87618;-63
2023/12/07 10:52:22;;;;;;;5.27;3.10;;;;;;;;;;4980552;28;89681;-64
2023/12/07 10:54:56;;;;;;;3.30;3.00;;;;;;;;;;4980944;28;88015;-63
2023/12/07 10:57:24;;;;;;;4.93;3.50;;;;;;;;;;4981380;28;87507;-63
2023/12/07 11:03:27;;;;;;;6.90;3.17;;;;;;;;;;4981422;28;87442;-63
2023/12/07 11:05:56;;;;;;;6.97;3.83;;;;;;;;;;4982119;28;89475;-63
2023/12/07 11:08:26;;;;;;;6.77;3.10;;;;;;;;;;4982988;28;87402;-64
2023/12/07 11:10:57;;;;;;;4.40;2.93;;;;;;;;;;4982002;28;87274;-64
2023/12/07 11:13:26;;;;;;;3.63;2.70;;;;;;;;;;4981239;28;89775;-64
2023/12/07 11:15:55;;;;;;;4.20;3.40;;;;;;;;;;4988391;28;91450;-64
2023/12/07 11:18:27;;;;;;;5.93;3.10;;;;;;;;;;4980466;28;88255;-65
2023/12/07 11:20:56;;;;;;;4.43;2.97;;;;;;;;;;4990079;28;87501;-65
2023/12/07 11:26:57;;;;;;;5.50;2.73;;;;;;;;;;4979604;28;87412;-64
2023/12/07 11:32:32;;;;;;;4.10;3.23;;;;;;;;;;4980381;28;87679;-65
2023/12/07 11:35:03;;;;;;;4.17;3.20;;;;;;;;;;4981026;28;90860;-64
2023/12/07 11:37:48;;;;;;;4.40;2.90;;;;;;;;;;4980778;28;88035;-64
2023/12/07 11:40:19;;;;;;;7.60;3.37;;;;;;;;;;4979305;28;89793;-64
2023/12/07 11:42:48;;;;;;;5.17;3.57;;;;;;;;;;4980814;28;87619;-64
2023/12/07 11:45:16;;;;;;;5.13;3.07;;;;;;;;;;4980190;28;89687;-64
2023/12/07 11:47:48;;;;;;;5.30;3.23;;;;;;;;;;4980589;28;89067;-64
2023/12/07 11:50:18;;;;;;;5.90;3.80;;;;;;;;;;4975071;28;87591;-65
2023/12/07 11:52:46;;;;;;;4.10;3.33;;;;;;;;;;4961593;28;87590;-65
2023/12/07 11:55:17;;;;;;;4.73;3.37;;;;;;;;;;4961876;28;89524;-65
2023/12/07 11:57:46;;;;;;;4.63;3.87;;;;;;;;;;4971802;28;89498;-65
2023/12/07 12:00:15;;;;;;;6.33;4.07;;;;;;;;;;4989842;28;87377;-65
2023/12/07 12:02:52;;;;;;;6.10;4.70;;;;;;;;;;4983742;28;87638;-65
2023/12/07 12:08:55;;;;;;;8.67;4.23;;;;;;;;;;4999921;28;87417;-65
2023/12/07 12:11:23;;;;;;;10.97;4.87;;;;;;;;;;5000115;28;87242;-65
2023/12/07 12:13:54;;;;;;;7.03;4.47;;;;;;;;;;5000818;28;87672;-65
2023/12/07 12:16:33;;;;;;;5.73;4.10;;;;;;;;;;5002121;28;91028;-65
2023/12/07 12:19:01;;;;;;;8.47;5.50;;;;;;;;;;4985877;28;88659;-65
2023/12/07 12:21:30;;;;;;;7.17;4.87;;;;;;;;;;4983927;28;87404;-66
2023/12/07 12:24:00;;;;;;;6.43;5.17;;;;;;;;;;4998509;28;87482;-70
2023/12/07 12:26:29;;;;;;;9.83;5.37;;;;;;;;;;4995614;28;89971;-69
2023/12/07 12:29:04;;;;;;;8.57;5.73;;;;;;;;;;4998332;28;89218;-69
2023/12/07 12:31:57;;;;;;;7.47;5.03;;;;;;;;;;4982082;28;87693;-73
2023/12/07 12:34:35;;;;;;;7.87;5.17;;;;;;;;;;4964786;28;87417;-70
2023/12/07 12:37:05;;;;;;;6.93;4.80;;;;;;;;;;4964333;28;90061;-68
2023/12/07 12:39:35;;;;;;;6.73;4.77;;;;;;;;;;4963245;28;88726;-67
2023/12/07 12:42:04;;;;;;;9.80;4.83;;;;;;;;;;4967318;28;87521;-64
2023/12/07 12:44:33;;;;;;;9.73;5.47;;;;;;;;;;4967077;28;87477;-68
2023/12/07 12:47:08;;;;;;;9.03;4.80;;;;;;;;;;4967879;28;89695;-65
2023/12/07 12:49:40;;;;;;;7.73;4.60;;;;;;;;;;4964374;28;89147;-65
2023/12/07 12:52:11;;;;;;;10.47;4.73;;;;;;;;;;4979561;28;87485;-65
2023/12/07 12:54:42;;;;;;;9.10;4.93;;;;;;;;;;4979532;28;87389;-65
2023/12/07 12:57:11;;;;;;;4.43;4.00;;;;;;;;;;4981675;28;89363;-65
2023/12/07 12:59:40;;;;;;;14.37;5.20;;;;;;;;;;4968803;28;91894;-65
2023/12/07 13:02:11;;;;;;;8.70;4.53;;;;;;;;;;4971422;28;87399;-65
2023/12/07 13:04:40;;;;;;;10.87;4.50;;;;;;;;;;4964376;28;87551;-65
2023/12/07 13:07:26;;;;;;;6.57;4.80;;;;;;;;;;4961958;28;89661;-64
2023/12/07 13:09:56;;;;;;;6.27;3.83;;;;;;;;;;4978905;28;89059;-64
2023/12/07 13:12:27;;;;;;;6.37;4.10;;;;;;;;;;4971335;28;87476;-65
2023/12/07 13:14:56;;;;;;;6.33;4.83;;;;;;;;;;4974820;28;87438;-64
2023/12/07 13:17:41;;;;;;;5.73;3.97;;;;;;;;;;4983393;28;89348;-65
2023/12/07 13:20:14;;;;;;;7.07;4.17;;;;;;;;;;4982997;28;89029;-65
2023/12/07 13:22:45;;;;;;;6.60;4.03;;;;;;;;;;4983677;28;87266;-64
2023/12/07 13:25:22;;;;;;;7.07;4.27;;;;;;;;;;4983925;28;87581;-64
2023/12/07 13:28:12;;;;;;;8.00;3.43;;;;;;;;;;4982688;28;89698;-64
2023/12/07 13:30:40;;;;;;;5.97;4.30;;;;;;;;;;4983342;28;89616;-65
2023/12/07 13:33:09;;;;;;;5.97;3.80;;;;;;;;;;4984472;28;87548;-65
2023/12/07 13:35:54;;;;;;;4.53;3.77;;;;;;;;;;5003450;28;87752;-65
2023/12/07 13:38:23;;;;;;;5.87;3.90;;;;;;;;;;5003129;28;89463;-65
2023/12/07 13:40:54;;;;;;;3.63;3.20;;;;;;;;;;5002955;28;89202;-65
2023/12/07 13:47:31;;;;;;;5.03;3.90;;;;;;;;;;5002881;28;87384;-65
2023/12/07 13:50:03;;;;;;;6.33;3.00;;;;;;;;;;4998233;28;89709;-65
2023/12/07 13:52:33;;;;;;;4.43;3.17;;;;;;;;;;5003291;28;89369;-65
2023/12/07 13:55:02;;;;;;;4.80;3.20;;;;;;;;;;5003069;28;87268;-64
2023/12/07 13:57:32;;;;;;;4.53;3.70;;;;;;;;;;5003315;28;87621;-65
2023/12/07 14:00:01;;;;;;;3.83;2.97;;;;;;;;;;5002404;28;88329;-65
2023/12/07 14:02:33;;;;;;;4.73;3.47;;;;;;;;;;5002430;28;89094;-65
2023/12/07 14:05:01;;;;;;;5.33;3.43;;;;;;;;;;4951750;28;87542;-65
2023/12/07 14:07:30;;;;;;;5.27;3.20;;;;;;;;;;5002932;28;87660;-64
2023/12/07 14:10:00;;;;;;;3.60;3.20;;;;;;;;;;5002849;28;88680;-65
2023/12/07 14:12:47;;;;;;;3.50;2.73;;;;;;;;;;5002755;28;89160;-64
2023/12/07 14:15:26;;;;;;;4.10;3.20;;;;;;;;;;4910802;28;87960;-70
2023/12/07 14:21:36;;;;;;;3.50;2.57;;;;;;;;;;4976050;28;90075;-75
2023/12/07 14:24:14;;;;;;;5.17;3.03;;;;;;;;;;4983674;28;88274;-73
2023/12/07 14:27:01;;;;;;;3.17;2.57;;;;;;;;;;4982723;28;87200;-66
2023/12/07 14:29:32;;;;;;;4.97;2.67;;;;;;;;;;4982948;28;87662;-70
2023/12/07 14:32:05;;;;;;;2.90;2.50;;;;;;;;;;4980480;28;89520;-73
2023/12/07 14:34:34;;;;;;;4.87;2.63;;;;;;;;;;4981655;28;88827;-73
2023/12/07 14:37:05;;;;;;;4.57;2.80;;;;;;;;;;4982262;28;87402;-73
2023/12/07 14:39:37;;;;;;;3.27;2.63;;;;;;;;;;4981907;28;87350;-73
2023/12/07 14:45:10;;;;;;;3.77;2.50;;;;;;;;;;4971096;28;88290;-73
2023/12/07 14:47:45;;;;;;;3.67;2.27;;;;;;;;;;4982024;28;87422;-74
2023/12/07 14:50:14;;;;;;;2.83;2.20;;;;;;;;;;4982442;28;87436;-73
2023/12/07 15:03:22;;;;;;;2.73;1.90;;;;;;;;;;4982168;28;87191;-71
2023/12/07 15:05:51;;;;;;;3.23;2.03;;;;;;;;;;4982180;28;89638;-71
2023/12/07 15:08:19;;;;;;;3.30;1.80;;;;;;;;;;4982387;28;91496;-71
2023/12/07 15:10:52;;;;;;;2.03;1.67;;;;;;;;;;4982405;28;87315;-72
2023/12/07 15:13:20;;;;;;;4.00;2.03;;;;;;;;;;4982475;28;87476;-72
2023/12/07 15:15:48;;;;;;;5.53;2.00;;;;;;;;;;4982143;28;91777;-71
2023/12/07 15:18:17;;;;;;;3.63;2.27;;;;;;;;;;4981674;28;89340;-72
2023/12/07 15:20:47;;;;;;;2.90;1.90;;;;;;;;;;4982120;28;87096;-71
2023/12/07 15:23:15;;;;;;;1.50;1.40;;;;;;;;;;4982200;28;87599;-71
2023/12/07 15:25:44;;;;;;;1.83;1.50;;;;;;;;;;4982199;28;90055;-72
2023/12/07 15:28:14;;;;;;;2.37;2.03;;;;;;;;;;4981794;28;89179;-72
2023/12/07 15:30:43;;;;;;;3.23;2.00;;;;;;;;;;4982292;28;87435;-72
2023/12/07 15:33:12;;;;;;;1.97;1.77;;;;;;;;;;4982381;28;87663;-72
2023/12/07 15:35:41;;;;;;;5.23;2.03;;;;;;;;;;4983097;28;89530;-73
2023/12/07 15:38:11;;;;;;;3.80;1.73;;;;;;;;;;4981256;28;88290;-72
2023/12/07 15:40:40;;;;;;;2.40;1.70;;;;;;;;;;4981928;28;87436;-73
2023/12/07 15:43:09;;;;;;;1.70;1.40;;;;;;;;;;4981870;28;87679;-72
2023/12/07 15:45:37;;;;;;;2.20;1.70;;;;;;;;;;4982135;28;89641;-71
2023/12/07 15:48:06;;;;;;;4.57;2.37;;;;;;;;;;4981783;28;89026;-72
2023/12/07 15:50:34;;;;;;;1.70;1.40;;;;;;;;;;4982706;28;87336;-72
2023/12/07 15:53:03;;;;;;;1.80;1.60;;;;;;;;;;4985556;28;87610;-72
2023/12/07 15:55:33;;;;;;;3.47;1.50;;;;;;;;;;4985110;28;89693;-72
2023/12/07 15:58:01;;;;;;;4.10;1.33;;;;;;;;;;4975371;28;89053;-71
2023/12/07 16:00:29;;;;;;;3.20;1.60;;;;;;;;;;4973480;28;87971;-71
2023/12/07 16:02:58;;;;;;;2.63;1.47;;;;;;;;;;4980002;28;87875;-70
2023/12/07 16:05:27;;;;;;;2.47;1.63;;;;;;;;;;4979939;28;89330;-70
2023/12/07 16:07:55;;;;;;;2.13;1.47;;;;;;;;;;4980547;28;89398;-72
2023/12/07 16:10:24;;;;;;;5.07;1.80;;;;;;;;;;4980477;28;87636;-70
2023/12/07 16:12:53;;;;;;;2.77;1.50;;;;;;;;;;4975824;28;87959;-70
2023/12/07 16:15:22;;;;;;;1.83;1.67;;;;;;;;;;4987697;28;89716;-70
2023/12/07 16:17:50;;;;;;;2.53;1.50;;;;;;;;;;4990885;28;89278;-70